FZWS weather

Lubao Airport
Lubao, Kasai-Oriental Province, Congo (Kinshasa)

Public forecast

Using degrees Celsius for public forecast. Weather courtesy of forecast.io.

METAR (pilot weather report)

Report is more than 6 hours old.

Closest report is Mbuji Mayi Airport, 138.4 nm (256.3 km) WSW. Retrieved 2019/02/16 16:00 UTC (7 hours ago):

FZWA 161600Z 28008KT 9999 FEW020 FEW024CB BKN300 27/21 Q1013 NOSIG

TAF (pilot weather forecast)

Forecast is more than 12 hours old.

Closest forecast is Mbuji Mayi Airport, 138.4 nm (256.3 km) WSW. Retrieved 2016/03/19 06:00 UTC (3 years ago):

TAF FZWA 190500Z 1906/2012 09004KT CAVOK TEMPO 1912/1918 18008KT 9999 SCT027 BECMG 1919/1920 00000KT FEW030CB